sensor_id;sensor_type;location;lat;lon;timestamp;temperature;humidity
12819;DHT22;6474;53.474;9.894;2023-05-29T00:00:27;14.10;61.90
12819;DHT22;6474;53.474;9.894;2023-05-29T00:02:55;14.10;61.90
12819;DHT22;6474;53.474;9.894;2023-05-29T00:05:24;14.00;61.80
12819;DHT22;6474;53.474;9.894;2023-05-29T00:07:52;14.00;62.10
12819;DHT22;6474;53.474;9.894;2023-05-29T00:10:20;13.90;62.10
12819;DHT22;6474;53.474;9.894;2023-05-29T00:12:48;13.90;62.10
12819;DHT22;6474;53.474;9.894;2023-05-29T00:15:16;13.90;62.10
12819;DHT22;6474;53.474;9.894;2023-05-29T00:17:43;13.90;62.10
12819;DHT22;6474;53.474;9.894;2023-05-29T00:20:12;13.90;62.10
12819;DHT22;6474;53.474;9.894;2023-05-29T00:22:41;13.90;62.10
12819;DHT22;6474;53.474;9.894;2023-05-29T00:25:09;13.90;62.10
12819;DHT22;6474;53.474;9.894;2023-05-29T00:27:37;13.90;62.10
12819;DHT22;6474;53.474;9.894;2023-05-29T00:30:06;13.90;62.10
12819;DHT22;6474;53.474;9.894;2023-05-29T00:32:34;13.90;62.10
12819;DHT22;6474;53.474;9.894;2023-05-29T00:35:03;13.80;62.10
12819;DHT22;6474;53.474;9.894;2023-05-29T00:37:31;13.80;62.10
12819;DHT22;6474;53.474;9.894;2023-05-29T00:40:00;13.80;62.20
12819;DHT22;6474;53.474;9.894;2023-05-29T00:42:29;13.80;62.10
12819;DHT22;6474;53.474;9.894;2023-05-29T00:44:57;13.70;62.10
12819;DHT22;6474;53.474;9.894;2023-05-29T00:47:25;13.70;62.20
12819;DHT22;6474;53.474;9.894;2023-05-29T00:49:53;13.70;62.30
12819;DHT22;6474;53.474;9.894;2023-05-29T00:52:23;13.70;62.30
12819;DHT22;6474;53.474;9.894;2023-05-29T00:54:51;13.70;62.40
12819;DHT22;6474;53.474;9.894;2023-05-29T00:57:21;13.60;62.20
12819;DHT22;6474;53.474;9.894;2023-05-29T00:59:50;13.60;62.20
12819;DHT22;6474;53.474;9.894;2023-05-29T01:02:20;13.50;62.20
12819;DHT22;6474;53.474;9.894;2023-05-29T01:04:49;13.50;62.20
12819;DHT22;6474;53.474;9.894;2023-05-29T01:07:21;13.40;62.30
12819;DHT22;6474;53.474;9.894;2023-05-29T01:09:49;13.40;62.40
12819;DHT22;6474;53.474;9.894;2023-05-29T01:12:30;13.30;62.40
12819;DHT22;6474;53.474;9.894;2023-05-29T01:15:11;13.20;62.40
12819;DHT22;6474;53.474;9.894;2023-05-29T01:17:51;13.10;62.40
12819;DHT22;6474;53.474;9.894;2023-05-29T01:20:27;13.00;62.50
12819;DHT22;6474;53.474;9.894;2023-05-29T01:23:09;13.00;62.60
12819;DHT22;6474;53.474;9.894;2023-05-29T01:25:50;12.90;62.50
12819;DHT22;6474;53.474;9.894;2023-05-29T01:28:27;12.80;62.50
12819;DHT22;6474;53.474;9.894;2023-05-29T01:30:59;12.80;62.60
12819;DHT22;6474;53.474;9.894;2023-05-29T01:33:28;12.70;62.50
12819;DHT22;6474;53.474;9.894;2023-05-29T01:35:56;12.60;62.40
12819;DHT22;6474;53.474;9.894;2023-05-29T01:38:23;12.60;62.50
12819;DHT22;6474;53.474;9.894;2023-05-29T01:40:51;12.50;62.40
12819;DHT22;6474;53.474;9.894;2023-05-29T01:43:19;12.40;62.30
12819;DHT22;6474;53.474;9.894;2023-05-29T01:45:49;12.40;62.40
12819;DHT22;6474;53.474;9.894;2023-05-29T01:48:17;12.30;62.40
12819;DHT22;6474;53.474;9.894;2023-05-29T01:50:46;12.20;62.40
12819;DHT22;6474;53.474;9.894;2023-05-29T01:53:15;12.20;62.50
12819;DHT22;6474;53.474;9.894;2023-05-29T01:55:43;12.10;62.40
12819;DHT22;6474;53.474;9.894;2023-05-29T01:58:12;12.00;62.50
12819;DHT22;6474;53.474;9.894;2023-05-29T02:00:42;12.00;62.50
12819;DHT22;6474;53.474;9.894;2023-05-29T02:03:11;11.90;62.50
12819;DHT22;6474;53.474;9.894;2023-05-29T02:05:39;11.90;62.40
12819;DHT22;6474;53.474;9.894;2023-05-29T02:08:07;11.80;62.30
12819;DHT22;6474;53.474;9.894;2023-05-29T02:10:35;11.80;62.40
12819;DHT22;6474;53.474;9.894;2023-05-29T02:13:03;11.80;62.40
12819;DHT22;6474;53.474;9.894;2023-05-29T02:15:31;11.70;62.40
12819;DHT22;6474;53.474;9.894;2023-05-29T02:17:59;11.70;62.50
12819;DHT22;6474;53.474;9.894;2023-05-29T02:20:29;11.70;62.40
12819;DHT22;6474;53.474;9.894;2023-05-29T02:22:56;11.70;62.40
12819;DHT22;6474;53.474;9.894;2023-05-29T02:25:24;11.60;62.40
12819;DHT22;6474;53.474;9.894;2023-05-29T02:27:52;11.60;62.50
12819;DHT22;6474;53.474;9.894;2023-05-29T02:30:20;11.50;62.30
12819;DHT22;6474;53.474;9.894;2023-05-29T02:32:48;11.50;62.40
12819;DHT22;6474;53.474;9.894;2023-05-29T02:35:17;11.50;62.50
12819;DHT22;6474;53.474;9.894;2023-05-29T02:37:49;11.40;62.40
12819;DHT22;6474;53.474;9.894;2023-05-29T02:40:17;11.40;62.60
12819;DHT22;6474;53.474;9.894;2023-05-29T02:42:46;11.40;62.60
12819;DHT22;6474;53.474;9.894;2023-05-29T02:45:14;11.30;62.50
12819;DHT22;6474;53.474;9.894;2023-05-29T02:47:42;11.30;62.40
12819;DHT22;6474;53.474;9.894;2023-05-29T02:50:10;11.30;62.20
12819;DHT22;6474;53.474;9.894;2023-05-29T02:52:38;11.40;62.20
12819;DHT22;6474;53.474;9.894;2023-05-29T02:55:08;11.30;62.10
12819;DHT22;6474;53.474;9.894;2023-05-29T02:57:36;11.30;62.10
12819;DHT22;6474;53.474;9.894;2023-05-29T03:00:04;11.30;62.20
12819;DHT22;6474;53.474;9.894;2023-05-29T03:02:34;11.20;63.00
12819;DHT22;6474;53.474;9.894;2023-05-29T03:05:02;11.20;62.40
12819;DHT22;6474;53.474;9.894;2023-05-29T03:07:31;11.20;62.40
12819;DHT22;6474;53.474;9.894;2023-05-29T03:09:58;11.10;62.30
12819;DHT22;6474;53.474;9.894;2023-05-29T03:12:27;11.10;62.30
12819;DHT22;6474;53.474;9.894;2023-05-29T03:14:55;11.10;62.30
12819;DHT22;6474;53.474;9.894;2023-05-29T03:17:23;11.10;62.30
12819;DHT22;6474;53.474;9.894;2023-05-29T03:19:52;11.10;62.40
12819;DHT22;6474;53.474;9.894;2023-05-29T03:22:20;11.10;62.30
12819;DHT22;6474;53.474;9.894;2023-05-29T03:24:47;11.00;62.20
12819;DHT22;6474;53.474;9.894;2023-05-29T03:27:15;11.10;62.30
12819;DHT22;6474;53.474;9.894;2023-05-29T03:29:44;11.10;62.30
12819;DHT22;6474;53.474;9.894;2023-05-29T03:32:12;11.10;62.30
12819;DHT22;6474;53.474;9.894;2023-05-29T03:34:40;11.10;62.30
12819;DHT22;6474;53.474;9.894;2023-05-29T03:37:10;11.20;62.40
12819;DHT22;6474;53.474;9.894;2023-05-29T03:39:38;11.20;62.30
12819;DHT22;6474;53.474;9.894;2023-05-29T03:42:06;11.20;62.10
12819;DHT22;6474;53.474;9.894;2023-05-29T03:44:34;11.20;62.10
12819;DHT22;6474;53.474;9.894;2023-05-29T03:47:03;11.30;62.10
12819;DHT22;6474;53.474;9.894;2023-05-29T03:49:31;11.30;62.00
12819;DHT22;6474;53.474;9.894;2023-05-29T03:51:59;11.30;62.00
12819;DHT22;6474;53.474;9.894;2023-05-29T03:54:27;11.30;62.00
12819;DHT22;6474;53.474;9.894;2023-05-29T03:56:55;11.30;62.00
12819;DHT22;6474;53.474;9.894;2023-05-29T03:59:23;11.40;62.20
12819;DHT22;6474;53.474;9.894;2023-05-29T04:01:50;11.40;62.20
12819;DHT22;6474;53.474;9.894;2023-05-29T04:04:20;11.50;62.20
12819;DHT22;6474;53.474;9.894;2023-05-29T04:06:48;11.50;62.10
12819;DHT22;6474;53.474;9.894;2023-05-29T04:09:16;11.50;62.00
12819;DHT22;6474;53.474;9.894;2023-05-29T04:11:44;11.50;62.00
12819;DHT22;6474;53.474;9.894;2023-05-29T04:14:12;11.50;62.00
12819;DHT22;6474;53.474;9.894;2023-05-29T04:16:40;11.60;62.10
12819;DHT22;6474;53.474;9.894;2023-05-29T04:19:08;11.60;62.00
12819;DHT22;6474;53.474;9.894;2023-05-29T04:21:37;11.50;61.80
12819;DHT22;6474;53.474;9.894;2023-05-29T04:24:05;11.60;61.90
12819;DHT22;6474;53.474;9.894;2023-05-29T04:26:33;11.60;62.00
12819;DHT22;6474;53.474;9.894;2023-05-29T04:29:01;11.60;62.00
12819;DHT22;6474;53.474;9.894;2023-05-29T04:31:30;11.60;62.00
12819;DHT22;6474;53.474;9.894;2023-05-29T04:33:58;11.60;62.00
12819;DHT22;6474;53.474;9.894;2023-05-29T04:36:27;11.80;62.10
12819;DHT22;6474;53.474;9.894;2023-05-29T04:39:00;12.00;61.80
12819;DHT22;6474;53.474;9.894;2023-05-29T04:41:28;12.10;61.60
12819;DHT22;6474;53.474;9.894;2023-05-29T04:43:58;12.10;61.40
12819;DHT22;6474;53.474;9.894;2023-05-29T04:46:25;12.20;61.30
12819;DHT22;6474;53.474;9.894;2023-05-29T04:48:54;12.20;61.10
12819;DHT22;6474;53.474;9.894;2023-05-29T04:51:21;12.30;61.10
12819;DHT22;6474;53.474;9.894;2023-05-29T04:53:50;12.20;61.20
12819;DHT22;6474;53.474;9.894;2023-05-29T04:56:20;12.20;61.20
12819;DHT22;6474;53.474;9.894;2023-05-29T04:58:48;12.20;61.30
12819;DHT22;6474;53.474;9.894;2023-05-29T05:01:17;12.20;61.50
12819;DHT22;6474;53.474;9.894;2023-05-29T05:03:45;12.20;61.60
12819;DHT22;6474;53.474;9.894;2023-05-29T05:06:13;12.20;61.60
12819;DHT22;6474;53.474;9.894;2023-05-29T05:08:43;12.30;61.70
12819;DHT22;6474;53.474;9.894;2023-05-29T05:11:11;12.30;61.70
12819;DHT22;6474;53.474;9.894;2023-05-29T05:13:41;12.30;61.70
12819;DHT22;6474;53.474;9.894;2023-05-29T05:16:09;12.30;61.60
12819;DHT22;6474;53.474;9.894;2023-05-29T05:18:38;12.30;61.60
12819;DHT22;6474;53.474;9.894;2023-05-29T05:21:06;12.20;61.60
12819;DHT22;6474;53.474;9.894;2023-05-29T05:23:33;12.20;61.70
12819;DHT22;6474;53.474;9.894;2023-05-29T05:26:21;12.20;61.90
12819;DHT22;6474;53.474;9.894;2023-05-29T05:28:51;12.20;61.90
12819;DHT22;6474;53.474;9.894;2023-05-29T05:31:18;12.20;62.00
12819;DHT22;6474;53.474;9.894;2023-05-29T05:33:46;12.20;62.10
12819;DHT22;6474;53.474;9.894;2023-05-29T05:36:14;12.20;62.10
12819;DHT22;6474;53.474;9.894;2023-05-29T05:38:42;12.30;62.10
12819;DHT22;6474;53.474;9.894;2023-05-29T05:41:10;12.40;62.00
12819;DHT22;6474;53.474;9.894;2023-05-29T05:43:38;12.40;61.70
12819;DHT22;6474;53.474;9.894;2023-05-29T05:46:07;12.40;61.60
12819;DHT22;6474;53.474;9.894;2023-05-29T05:48:35;12.40;61.50
12819;DHT22;6474;53.474;9.894;2023-05-29T05:51:03;12.40;61.50
12819;DHT22;6474;53.474;9.894;2023-05-29T05:53:34;12.30;61.60
12819;DHT22;6474;53.474;9.894;2023-05-29T05:56:03;12.30;61.70
12819;DHT22;6474;53.474;9.894;2023-05-29T05:58:30;12.40;61.90
12819;DHT22;6474;53.474;9.894;2023-05-29T06:00:58;12.40;61.80
12819;DHT22;6474;53.474;9.894;2023-05-29T06:03:29;12.50;61.70
12819;DHT22;6474;53.474;9.894;2023-05-29T06:06:00;12.50;62.60
12819;DHT22;6474;53.474;9.894;2023-05-29T06:08:28;12.60;62.10
12819;DHT22;6474;53.474;9.894;2023-05-29T06:10:56;12.50;62.20
12819;DHT22;6474;53.474;9.894;2023-05-29T06:13:24;12.70;62.50
12819;DHT22;6474;53.474;9.894;2023-05-29T06:15:52;12.90;62.40
12819;DHT22;6474;53.474;9.894;2023-05-29T06:18:20;13.10;62.50
12819;DHT22;6474;53.474;9.894;2023-05-29T06:20:49;13.20;62.30
12819;DHT22;6474;53.474;9.894;2023-05-29T06:23:18;13.30;62.20
12819;DHT22;6474;53.474;9.894;2023-05-29T06:25:46;13.30;62.00
12819;DHT22;6474;53.474;9.894;2023-05-29T06:28:14;13.40;61.70
12819;DHT22;6474;53.474;9.894;2023-05-29T06:30:42;13.40;61.60
12819;DHT22;6474;53.474;9.894;2023-05-29T06:33:12;13.40;61.50
12819;DHT22;6474;53.474;9.894;2023-05-29T06:35:40;13.40;61.40
12819;DHT22;6474;53.474;9.894;2023-05-29T06:38:09;13.40;61.40
12819;DHT22;6474;53.474;9.894;2023-05-29T06:40:37;13.40;61.20
12819;DHT22;6474;53.474;9.894;2023-05-29T06:43:04;13.30;61.10
12819;DHT22;6474;53.474;9.894;2023-05-29T06:45:32;13.30;61.10
12819;DHT22;6474;53.474;9.894;2023-05-29T06:48:00;13.30;61.20
12819;DHT22;6474;53.474;9.894;2023-05-29T06:50:28;13.30;61.10
12819;DHT22;6474;53.474;9.894;2023-05-29T06:52:56;13.30;61.80
12819;DHT22;6474;53.474;9.894;2023-05-29T06:55:25;13.30;61.20
12819;DHT22;6474;53.474;9.894;2023-05-29T06:57:53;13.30;61.40
12819;DHT22;6474;53.474;9.894;2023-05-29T07:00:21;13.30;61.40
12819;DHT22;6474;53.474;9.894;2023-05-29T07:02:49;13.40;61.40
12819;DHT22;6474;53.474;9.894;2023-05-29T07:05:18;13.40;61.30
12819;DHT22;6474;53.474;9.894;2023-05-29T07:07:46;13.50;61.20
12819;DHT22;6474;53.474;9.894;2023-05-29T07:10:14;13.50;61.20
12819;DHT22;6474;53.474;9.894;2023-05-29T07:12:43;13.50;61.30
12819;DHT22;6474;53.474;9.894;2023-05-29T07:15:11;13.60;61.30
12819;DHT22;6474;53.474;9.894;2023-05-29T07:17:39;13.70;61.30
12819;DHT22;6474;53.474;9.894;2023-05-29T07:20:07;13.80;61.10
12819;DHT22;6474;53.474;9.894;2023-05-29T07:22:35;13.90;60.90
12819;DHT22;6474;53.474;9.894;2023-05-29T07:25:04;13.90;60.90
12819;DHT22;6474;53.474;9.894;2023-05-29T07:27:32;14.00;60.90
12819;DHT22;6474;53.474;9.894;2023-05-29T07:30:01;14.10;60.80
12819;DHT22;6474;53.474;9.894;2023-05-29T07:32:29;14.20;60.90
12819;DHT22;6474;53.474;9.894;2023-05-29T07:34:57;14.30;60.70
12819;DHT22;6474;53.474;9.894;2023-05-29T07:37:25;14.30;60.40
12819;DHT22;6474;53.474;9.894;2023-05-29T07:39:53;14.20;60.30
12819;DHT22;6474;53.474;9.894;2023-05-29T07:42:21;14.10;60.40
12819;DHT22;6474;53.474;9.894;2023-05-29T07:44:49;14.20;60.80
12819;DHT22;6474;53.474;9.894;2023-05-29T07:47:18;14.20;60.80
12819;DHT22;6474;53.474;9.894;2023-05-29T07:49:46;14.30;60.80
12819;DHT22;6474;53.474;9.894;2023-05-29T07:52:14;14.50;60.80
12819;DHT22;6474;53.474;9.894;2023-05-29T07:54:42;14.50;60.60
12819;DHT22;6474;53.474;9.894;2023-05-29T07:57:10;14.60;60.60
12819;DHT22;6474;53.474;9.894;2023-05-29T07:59:40;14.70;60.80
12819;DHT22;6474;53.474;9.894;2023-05-29T08:02:08;14.80;60.80
12819;DHT22;6474;53.474;9.894;2023-05-29T08:04:38;14.90;60.60
12819;DHT22;6474;53.474;9.894;2023-05-29T08:07:05;14.90;60.50
12819;DHT22;6474;53.474;9.894;2023-05-29T08:09:33;15.00;60.50
12819;DHT22;6474;53.474;9.894;2023-05-29T08:12:01;15.10;60.60
12819;DHT22;6474;53.474;9.894;2023-05-29T08:14:29;15.10;60.50
12819;DHT22;6474;53.474;9.894;2023-05-29T08:16:57;15.10;60.50
12819;DHT22;6474;53.474;9.894;2023-05-29T08:19:27;15.10;60.40
12819;DHT22;6474;53.474;9.894;2023-05-29T08:21:56;15.20;60.60
12819;DHT22;6474;53.474;9.894;2023-05-29T08:24:24;15.20;60.50
12819;DHT22;6474;53.474;9.894;2023-05-29T08:26:52;15.20;60.50
12819;DHT22;6474;53.474;9.894;2023-05-29T08:29:20;15.20;60.50
12819;DHT22;6474;53.474;9.894;2023-05-29T08:31:48;15.20;60.40
12819;DHT22;6474;53.474;9.894;2023-05-29T08:34:15;15.20;60.50
12819;DHT22;6474;53.474;9.894;2023-05-29T08:36:43;15.20;60.60
12819;DHT22;6474;53.474;9.894;2023-05-29T08:39:13;15.20;60.50
12819;DHT22;6474;53.474;9.894;2023-05-29T08:41:45;15.30;60.60
12819;DHT22;6474;53.474;9.894;2023-05-29T08:44:21;15.30;60.50
12819;DHT22;6474;53.474;9.894;2023-05-29T08:46:54;15.40;60.50
12819;DHT22;6474;53.474;9.894;2023-05-29T08:49:24;15.50;60.60
12819;DHT22;6474;53.474;9.894;2023-05-29T08:51:57;15.50;60.50
12819;DHT22;6474;53.474;9.894;2023-05-29T08:54:31;15.60;60.50
12819;DHT22;6474;53.474;9.894;2023-05-29T08:57:00;15.70;60.60
12819;DHT22;6474;53.474;9.894;2023-05-29T08:59:30;15.70;60.60
12819;DHT22;6474;53.474;9.894;2023-05-29T09:01:58;15.80;60.60
12819;DHT22;6474;53.474;9.894;2023-05-29T09:04:27;15.90;60.50
12819;DHT22;6474;53.474;9.894;2023-05-29T09:06:57;16.10;60.50
12819;DHT22;6474;53.474;9.894;2023-05-29T09:09:25;16.10;60.40
12819;DHT22;6474;53.474;9.894;2023-05-29T09:11:56;16.20;61.10
12819;DHT22;6474;53.474;9.894;2023-05-29T09:14:34;16.30;60.30
12819;DHT22;6474;53.474;9.894;2023-05-29T09:17:04;16.30;60.30
12819;DHT22;6474;53.474;9.894;2023-05-29T09:19:32;16.40;60.30
12819;DHT22;6474;53.474;9.894;2023-05-29T09:22:01;16.40;60.20
12819;DHT22;6474;53.474;9.894;2023-05-29T09:24:30;16.50;60.30
12819;DHT22;6474;53.474;9.894;2023-05-29T09:27:01;16.50;60.20
12819;DHT22;6474;53.474;9.894;2023-05-29T09:29:31;16.60;60.10
12819;DHT22;6474;53.474;9.894;2023-05-29T09:32:00;16.70;60.10
12819;DHT22;6474;53.474;9.894;2023-05-29T09:34:31;16.70;60.10
12819;DHT22;6474;53.474;9.894;2023-05-29T09:37:01;16.70;60.10
12819;DHT22;6474;53.474;9.894;2023-05-29T09:39:46;16.80;60.20
12819;DHT22;6474;53.474;9.894;2023-05-29T09:42:16;16.80;60.10
12819;DHT22;6474;53.474;9.894;2023-05-29T09:44:45;16.90;60.00
12819;DHT22;6474;53.474;9.894;2023-05-29T09:47:17;16.90;60.10
12819;DHT22;6474;53.474;9.894;2023-05-29T09:49:46;17.00;60.10
12819;DHT22;6474;53.474;9.894;2023-05-29T09:52:14;17.10;60.10
12819;DHT22;6474;53.474;9.894;2023-05-29T09:54:43;17.20;60.00
12819;DHT22;6474;53.474;9.894;2023-05-29T09:57:13;17.30;60.20
12819;DHT22;6474;53.474;9.894;2023-05-29T09:59:44;17.40;60.10
12819;DHT22;6474;53.474;9.894;2023-05-29T10:02:14;17.60;60.10
12819;DHT22;6474;53.474;9.894;2023-05-29T10:04:42;17.60;59.90
12819;DHT22;6474;53.474;9.894;2023-05-29T10:07:19;17.60;59.80
12819;DHT22;6474;53.474;9.894;2023-05-29T10:09:52;17.50;59.90
12819;DHT22;6474;53.474;9.894;2023-05-29T10:12:22;17.50;60.00
12819;DHT22;6474;53.474;9.894;2023-05-29T10:14:54;17.60;60.00
12819;DHT22;6474;53.474;9.894;2023-05-29T10:17:26;17.60;60.00
12819;DHT22;6474;53.474;9.894;2023-05-29T10:19:57;17.60;60.00
12819;DHT22;6474;53.474;9.894;2023-05-29T10:22:31;17.60;60.00
12819;DHT22;6474;53.474;9.894;2023-05-29T10:25:00;17.70;60.00
12819;DHT22;6474;53.474;9.894;2023-05-29T10:27:28;17.80;59.90
12819;DHT22;6474;53.474;9.894;2023-05-29T10:30:02;17.90;59.90
12819;DHT22;6474;53.474;9.894;2023-05-29T10:32:37;17.90;59.80
12819;DHT22;6474;53.474;9.894;2023-05-29T10:35:16;18.00;59.80
12819;DHT22;6474;53.474;9.894;2023-05-29T10:37:49;18.10;59.60
12819;DHT22;6474;53.474;9.894;2023-05-29T10:40:23;18.20;59.70
12819;DHT22;6474;53.474;9.894;2023-05-29T10:42:53;18.20;59.70
12819;DHT22;6474;53.474;9.894;2023-05-29T10:45:50;18.20;59.70
12819;DHT22;6474;53.474;9.894;2023-05-29T10:48:36;18.20;59.70
12819;DHT22;6474;53.474;9.894;2023-05-29T10:51:06;18.20;59.70
12819;DHT22;6474;53.474;9.894;2023-05-29T10:53:34;18.30;59.70
12819;DHT22;6474;53.474;9.894;2023-05-29T10:56:15;18.40;59.50
12819;DHT22;6474;53.474;9.894;2023-05-29T10:58:43;18.40;59.40
12819;DHT22;6474;53.474;9.894;2023-05-29T11:01:13;18.50;59.50
12819;DHT22;6474;53.474;9.894;2023-05-29T11:03:41;18.60;59.50
12819;DHT22;6474;53.474;9.894;2023-05-29T11:06:19;18.60;59.50
12819;DHT22;6474;53.474;9.894;2023-05-29T11:08:53;18.60;59.50
12819;DHT22;6474;53.474;9.894;2023-05-29T11:11:31;18.70;59.60
12819;DHT22;6474;53.474;9.894;2023-05-29T11:14:02;18.70;59.60
12819;DHT22;6474;53.474;9.894;2023-05-29T11:16:37;18.70;59.60
12819;DHT22;6474;53.474;9.894;2023-05-29T11:19:06;18.70;59.60
12819;DHT22;6474;53.474;9.894;2023-05-29T11:21:49;18.80;60.30
12819;DHT22;6474;53.474;9.894;2023-05-29T11:24:22;18.90;59.80
12819;DHT22;6474;53.474;9.894;2023-05-29T11:26:51;18.90;59.80
12819;DHT22;6474;53.474;9.894;2023-05-29T11:29:24;18.90;59.80
12819;DHT22;6474;53.474;9.894;2023-05-29T11:31:58;18.90;59.80
12819;DHT22;6474;53.474;9.894;2023-05-29T11:34:29;18.90;59.80
12819;DHT22;6474;53.474;9.894;2023-05-29T11:36:57;19.00;59.90
12819;DHT22;6474;53.474;9.894;2023-05-29T11:39:25;19.00;59.90
12819;DHT22;6474;53.474;9.894;2023-05-29T11:41:54;19.00;59.90
12819;DHT22;6474;53.474;9.894;2023-05-29T11:44:24;19.10;60.00
12819;DHT22;6474;53.474;9.894;2023-05-29T11:47:00;19.10;59.80
12819;DHT22;6474;53.474;9.894;2023-05-29T11:49:30;19.10;59.80
12819;DHT22;6474;53.474;9.894;2023-05-29T11:52:07;19.10;59.80
12819;DHT22;6474;53.474;9.894;2023-05-29T11:54:38;19.10;59.80
12819;DHT22;6474;53.474;9.894;2023-05-29T11:57:06;19.20;59.90
12819;DHT22;6474;53.474;9.894;2023-05-29T11:59:33;19.20;59.80
12819;DHT22;6474;53.474;9.894;2023-05-29T12:02:03;19.20;59.80
12819;DHT22;6474;53.474;9.894;2023-05-29T12:04:31;19.30;59.80
12819;DHT22;6474;53.474;9.894;2023-05-29T12:06:59;19.40;59.70
12819;DHT22;6474;53.474;9.894;2023-05-29T12:09:28;19.50;59.60
12819;DHT22;6474;53.474;9.894;2023-05-29T12:12:01;19.50;59.60
12819;DHT22;6474;53.474;9.894;2023-05-29T12:14:29;19.50;59.60
12819;DHT22;6474;53.474;9.894;2023-05-29T12:16:57;19.50;59.60
12819;DHT22;6474;53.474;9.894;2023-05-29T12:19:27;19.60;59.70
12819;DHT22;6474;53.474;9.894;2023-05-29T12:21:56;19.60;59.60
12819;DHT22;6474;53.474;9.894;2023-05-29T12:24:24;19.70;59.60
12819;DHT22;6474;53.474;9.894;2023-05-29T12:27:07;19.70;59.50
12819;DHT22;6474;53.474;9.894;2023-05-29T12:29:36;19.80;59.50
12819;DHT22;6474;53.474;9.894;2023-05-29T12:32:09;19.80;59.50
12819;DHT22;6474;53.474;9.894;2023-05-29T12:34:38;19.80;59.50
12819;DHT22;6474;53.474;9.894;2023-05-29T12:37:08;19.80;59.40
12819;DHT22;6474;53.474;9.894;2023-05-29T12:39:41;19.90;59.60
12819;DHT22;6474;53.474;9.894;2023-05-29T12:42:08;19.90;59.50
12819;DHT22;6474;53.474;9.894;2023-05-29T12:44:37;19.90;59.50
12819;DHT22;6474;53.474;9.894;2023-05-29T12:47:06;20.00;59.50
12819;DHT22;6474;53.474;9.894;2023-05-29T12:49:36;20.00;59.50
12819;DHT22;6474;53.474;9.894;2023-05-29T12:52:06;20.00;59.40
12819;DHT22;6474;53.474;9.894;2023-05-29T12:54:36;20.10;59.40
12819;DHT22;6474;53.474;9.894;2023-05-29T12:57:05;20.10;59.40
12819;DHT22;6474;53.474;9.894;2023-05-29T12:59:33;20.10;59.40
12819;DHT22;6474;53.474;9.894;2023-05-29T13:02:01;20.20;59.50
12819;DHT22;6474;53.474;9.894;2023-05-29T13:04:29;20.20;59.40
12819;DHT22;6474;53.474;9.894;2023-05-29T13:06:57;20.20;59.40
12819;DHT22;6474;53.474;9.894;2023-05-29T13:09:27;20.20;59.40
12819;DHT22;6474;53.474;9.894;2023-05-29T13:11:55;20.20;59.40
12819;DHT22;6474;53.474;9.894;2023-05-29T13:14:23;20.30;59.40
12819;DHT22;6474;53.474;9.894;2023-05-29T13:16:51;20.40;59.50
12819;DHT22;6474;53.474;9.894;2023-05-29T13:19:19;20.40;59.40
12819;DHT22;6474;53.474;9.894;2023-05-29T13:21:46;20.40;59.40
12819;DHT22;6474;53.474;9.894;2023-05-29T13:24:15;20.50;59.30
12819;DHT22;6474;53.474;9.894;2023-05-29T13:26:45;20.50;59.30
12819;DHT22;6474;53.474;9.894;2023-05-29T13:29:12;20.60;59.30
12819;DHT22;6474;53.474;9.894;2023-05-29T13:31:40;20.60;59.30
12819;DHT22;6474;53.474;9.894;2023-05-29T13:34:08;20.60;59.20
12819;DHT22;6474;53.474;9.894;2023-05-29T13:36:37;20.60;59.30
12819;DHT22;6474;53.474;9.894;2023-05-29T13:39:05;20.60;59.20
12819;DHT22;6474;53.474;9.894;2023-05-29T13:41:33;20.60;59.20
12819;DHT22;6474;53.474;9.894;2023-05-29T13:44:03;20.70;59.30
12819;DHT22;6474;53.474;9.894;2023-05-29T13:46:30;20.70;59.30
12819;DHT22;6474;53.474;9.894;2023-05-29T13:48:58;20.60;59.20
12819;DHT22;6474;53.474;9.894;2023-05-29T13:51:27;20.70;59.40
12819;DHT22;6474;53.474;9.894;2023-05-29T13:53:54;20.70;59.40
12819;DHT22;6474;53.474;9.894;2023-05-29T13:56:22;20.70;59.30
12819;DHT22;6474;53.474;9.894;2023-05-29T13:58:53;20.70;59.30
12819;DHT22;6474;53.474;9.894;2023-05-29T14:01:22;20.70;59.20
12819;DHT22;6474;53.474;9.894;2023-05-29T14:03:51;20.70;59.20
12819;DHT22;6474;53.474;9.894;2023-05-29T14:06:18;20.70;59.20
12819;DHT22;6474;53.474;9.894;2023-05-29T14:08:46;20.70;59.20
12819;DHT22;6474;53.474;9.894;2023-05-29T14:11:14;20.60;59.20
12819;DHT22;6474;53.474;9.894;2023-05-29T14:13:42;20.70;59.30
12819;DHT22;6474;53.474;9.894;2023-05-29T14:16:10;20.70;59.20
12819;DHT22;6474;53.474;9.894;2023-05-29T14:18:40;20.70;59.20
12819;DHT22;6474;53.474;9.894;2023-05-29T14:21:08;20.70;59.10
12819;DHT22;6474;53.474;9.894;2023-05-29T14:23:37;20.70;59.20
12819;DHT22;6474;53.474;9.894;2023-05-29T14:26:05;20.60;59.10
12819;DHT22;6474;53.474;9.894;2023-05-29T14:28:33;20.60;59.20
12819;DHT22;6474;53.474;9.894;2023-05-29T14:31:01;20.60;59.20
12819;DHT22;6474;53.474;9.894;2023-05-29T14:33:30;20.60;59.20
12819;DHT22;6474;53.474;9.894;2023-05-29T14:35:59;20.60;59.10
12819;DHT22;6474;53.474;9.894;2023-05-29T14:38:27;20.60;59.20
12819;DHT22;6474;53.474;9.894;2023-05-29T14:40:54;20.60;59.20
12819;DHT22;6474;53.474;9.894;2023-05-29T14:43:35;20.70;59.20
12819;DHT22;6474;53.474;9.894;2023-05-29T14:46:03;20.70;59.10
12819;DHT22;6474;53.474;9.894;2023-05-29T14:48:31;20.70;59.10
12819;DHT22;6474;53.474;9.894;2023-05-29T14:51:00;20.70;59.10
12819;DHT22;6474;53.474;9.894;2023-05-29T14:53:28;20.70;59.10
12819;DHT22;6474;53.474;9.894;2023-05-29T14:55:58;20.70;59.00
12819;DHT22;6474;53.474;9.894;2023-05-29T14:58:26;20.70;59.00
12819;DHT22;6474;53.474;9.894;2023-05-29T15:00:53;20.70;59.00
12819;DHT22;6474;53.474;9.894;2023-05-29T15:03:22;20.70;59.00
12819;DHT22;6474;53.474;9.894;2023-05-29T15:05:53;20.70;58.90
12819;DHT22;6474;53.474;9.894;2023-05-29T15:08:22;20.60;58.90
12819;DHT22;6474;53.474;9.894;2023-05-29T15:10:50;20.60;58.90
12819;DHT22;6474;53.474;9.894;2023-05-29T15:13:18;20.60;58.90
12819;DHT22;6474;53.474;9.894;2023-05-29T15:15:46;20.70;59.00
12819;DHT22;6474;53.474;9.894;2023-05-29T15:18:14;20.60;58.90
12819;DHT22;6474;53.474;9.894;2023-05-29T15:20:42;20.60;58.90
12819;DHT22;6474;53.474;9.894;2023-05-29T15:23:09;20.60;58.90
12819;DHT22;6474;53.474;9.894;2023-05-29T15:25:39;20.60;59.00
12819;DHT22;6474;53.474;9.894;2023-05-29T15:28:07;20.50;58.80
12819;DHT22;6474;53.474;9.894;2023-05-29T15:30:35;20.50;58.90
12819;DHT22;6474;53.474;9.894;2023-05-29T15:33:03;20.50;58.90
12819;DHT22;6474;53.474;9.894;2023-05-29T15:35:36;20.50;58.90
12819;DHT22;6474;53.474;9.894;2023-05-29T15:38:05;20.40;58.80
12819;DHT22;6474;53.474;9.894;2023-05-29T15:40:32;20.40;58.80
12819;DHT22;6474;53.474;9.894;2023-05-29T15:43:02;20.40;58.80
12819;DHT22;6474;53.474;9.894;2023-05-29T15:45:30;20.40;58.80
12819;DHT22;6474;53.474;9.894;2023-05-29T15:47:58;20.40;58.70
12819;DHT22;6474;53.474;9.894;2023-05-29T15:50:26;20.40;58.70
12819;DHT22;6474;53.474;9.894;2023-05-29T15:52:53;20.40;58.70
12819;DHT22;6474;53.474;9.894;2023-05-29T15:55:22;20.40;58.70
12819;DHT22;6474;53.474;9.894;2023-05-29T15:57:50;20.30;58.60